CheckWX is a tool to help pilots better visualize weather data.  It is not intended as a substitute for an official pre-flight weather briefing.

14:46:32 UTC

KSHL METAR
Sheldon Regional Airport
Sheldon, Iowa, USA
Current

12 mins ago

KSHL 201435Z AUTO 05006KT 10SM CLR 08/07 A3017 RMK AO2
Observed
May-20 @ 14:35 UTC
Wind
  • 050° at 6 KTS
Visibility
10 SM
Flight Rules
VFR
Cloud Levels
  • Clear skies
Temperature
C / 46°F
Dewpoint
C / 45°F
Humidity
93%
Altimeter
30.17" Hg
Pressure
1021.72 hPa
Previous

32 mins ago

KSHL 201415Z AUTO VRB05KT 10SM CLR 07/07 A3014 RMK AO2
Observed
May-20 @ 14:15 UTC
Wind
  • Variable at 5 KTS
Visibility
10 SM
Flight Rules
VFR
Cloud Levels
  • Clear skies
Temperature
C / 45°F
Dewpoint
C / 45°F
Humidity
100%
Altimeter
30.14" Hg
Pressure
1020.62 hPa
Previous

52 mins ago

KSHL 201355Z AUTO 03007KT 10SM CLR 07/06 A3014 RMK AO2
Observed
May-20 @ 13:55 UTC
Wind
  • 030° at 7 KTS
Visibility
10 SM
Flight Rules
VFR
Cloud Levels
  • Clear skies
Temperature
C / 45°F
Dewpoint
C / 43°F
Humidity
93%
Altimeter
30.14" Hg
Pressure
1020.62 hPa